Time;durP1;ratioP1;P1;durP2;ratioP2;P2;SDS_P1;SDS_P2;PMS_P1;PMS_P2;Temp;Humidity;BMP_temperature;BMP_pressure;BME280_temperature;BME280_humidity;BME280_pressure;Samples;Min_cycle;Max_cycle;Signal;HPM_P1;HPM_P2
2021/01/13 00:03:01;;;;;;;1.20;0.90;;;;;;;6.41;58.56;100764.69;6162131;28;20238;-68
2021/01/13 00:06:23;;;;;;;1.63;1.07;;;;;;;6.19;59.09;100758.50;6167080;28;20234;-67
2021/01/13 00:09:44;;;;;;;2.77;1.30;;;;;;;5.88;59.79;100747.00;6158233;28;20278;-67
2021/01/13 00:13:04;;;;;;;3.70;1.37;;;;;;;5.08;62.31;100733.25;6162115;28;20234;-67
2021/01/13 00:16:25;;;;;;;4.57;1.53;;;;;;;4.40;65.78;100729.78;6155827;28;20234;-68
2021/01/13 00:19:45;;;;;;;5.13;2.03;;;;;;;4.98;63.50;100780.44;6161382;28;20326;-67
2021/01/13 00:23:07;;;;;;;5.63;1.87;;;;;;;5.31;62.50;100777.41;6161627;28;20238;-66
2021/01/13 00:26:27;;;;;;;7.63;2.43;;;;;;;5.29;62.69;100787.72;6164997;28;20322;-66
2021/01/13 00:29:48;;;;;;;7.67;1.90;;;;;;;5.33;62.82;100757.63;6148040;28;20238;-67
2021/01/13 00:33:09;;;;;;;7.03;1.90;;;;;;;5.29;62.88;100750.69;6159596;28;20538;-67
2021/01/13 00:36:30;;;;;;;5.60;2.47;;;;;;;5.18;63.25;100741.97;6146847;28;20317;-67
2021/01/13 00:39:51;;;;;;;8.43;2.50;;;;;;;5.35;62.23;100744.72;6167072;28;20238;-67
2021/01/13 00:43:11;;;;;;;4.07;1.83;;;;;;;5.18;62.62;100737.66;6164822;28;20226;-67
2021/01/13 00:46:36;;;;;;;4.90;1.27;;;;;;;5.17;62.63;100742.81;6159557;28;20231;-67
2021/01/13 00:49:56;;;;;;;3.03;1.43;;;;;;;5.30;62.17;100740.38;6158394;28;20539;-67
2021/01/13 00:53:17;;;;;;;4.50;1.30;;;;;;;5.24;62.16;100736.88;6164282;28;20242;-66
2021/01/13 00:56:40;;;;;;;4.37;2.33;;;;;;;4.99;62.99;100733.13;6166431;28;20227;-67
2021/01/13 01:00:00;;;;;;;8.63;2.30;;;;;;;4.77;63.47;100740.59;6156207;28;20226;-68
2021/01/13 01:03:21;;;;;;;6.13;2.87;;;;;;;4.72;64.51;100727.63;6164710;28;20226;-68
2021/01/13 01:06:42;;;;;;;9.83;4.50;;;;;;;4.86;63.72;100725.22;6160386;28;20222;-68
2021/01/13 01:10:02;;;;;;;8.60;2.87;;;;;;;4.69;64.08;100727.59;6162952;28;20234;-66
2021/01/13 01:13:23;;;;;;;7.40;2.53;;;;;;;4.49;64.82;100719.56;6152317;28;20238;-67
2021/01/13 01:16:44;;;;;;;5.33;1.93;;;;;;;4.25;65.45;100716.66;6160944;28;20321;-67
2021/01/13 01:20:06;;;;;;;5.73;1.70;;;;;;;4.14;65.51;100731.94;6167256;28;20277;-67
2021/01/13 01:23:26;;;;;;;5.30;1.90;;;;;;;4.13;66.04;100725.91;6162644;28;20230;-68
2021/01/13 01:26:47;;;;;;;7.00;2.67;;;;;;;3.81;66.72;100734.81;6138793;28;20309;-67
2021/01/13 01:30:10;;;;;;;2.97;1.57;;;;;;;4.53;65.10;100751.44;6163054;28;20235;-68
2021/01/13 01:33:30;;;;;;;5.60;1.80;;;;;;;4.96;63.19;100757.16;6163182;28;20234;-68
2021/01/13 01:36:55;;;;;;;5.00;1.93;;;;;;;5.19;62.45;100754.03;6166651;28;20269;-68
2021/01/13 01:40:18;;;;;;;5.37;1.60;;;;;;;5.40;61.68;100758.56;6166168;28;20234;-67
2021/01/13 01:43:44;;;;;;;5.83;1.40;;;;;;;5.56;61.17;100749.25;6163143;28;20830;-68
2021/01/13 01:47:09;;;;;;;7.77;2.20;;;;;;;5.78;60.54;100747.75;6163668;28;20242;-68
2021/01/13 01:50:32;;;;;;;9.37;2.13;;;;;;;6.05;59.69;100755.81;6161853;28;20600;-67
2021/01/13 01:54:06;;;;;;;7.33;1.90;;;;;;;5.15;61.39;100757.41;6164347;28;20238;-67
2021/01/13 01:57:34;;;;;;;6.57;1.73;;;;;;;5.19;61.56;100734.22;6165850;28;20222;-68
2021/01/13 02:04:30;;;;;;;6.50;1.40;;;;;;;4.82;62.94;100733.78;6132117;28;20227;-68
2021/01/13 02:07:52;;;;;;;6.37;1.40;;;;;;;4.74;62.46;100725.06;6135040;28;20238;-68
2021/01/13 02:11:15;;;;;;;4.93;1.47;;;;;;;4.87;61.93;100719.22;6134155;28;20232;-68
2021/01/13 02:14:36;;;;;;;6.80;1.60;;;;;;;4.84;62.44;100719.19;6140106;28;20511;-68
2021/01/13 02:18:03;;;;;;;3.83;1.77;;;;;;;4.52;63.50;100721.34;6129710;28;20231;-69
2021/01/13 02:21:31;;;;;;;6.07;1.80;;;;;;;4.88;62.48;100718.38;6149652;28;20219;-68
2021/01/13 02:25:47;;;;;;;5.33;2.10;;;;;;;4.87;62.82;100721.81;6130372;28;20624;-68
2021/01/13 02:29:17;;;;;;;6.37;1.60;;;;;;;4.90;62.27;100706.38;6131098;28;20224;-68
2021/01/13 02:32:41;;;;;;;5.20;1.87;;;;;;;4.26;64.94;100710.63;6127017;28;20246;-67
2021/01/13 02:36:17;;;;;;;8.70;1.60;;;;;;;4.12;66.03;100716.44;6141526;28;20235;-68
2021/01/13 02:39:39;;;;;;;13.37;3.57;;;;;;;4.51;64.63;100724.75;6141453;28;20231;-68
2021/01/13 02:43:03;;;;;;;7.70;2.87;;;;;;;4.38;65.10;100746.03;6143744;28;20239;-68
2021/01/13 02:47:02;;;;;;;10.03;2.90;;;;;;;4.74;64.07;100736.25;6137714;28;20238;-68
2021/01/13 02:50:24;;;;;;;7.77;2.30;;;;;;;4.74;63.89;100731.09;6139655;28;20246;-68
2021/01/13 02:53:56;;;;;;;5.37;2.00;;;;;;;4.45;64.82;100742.72;6143349;28;20235;-68
2021/01/13 02:57:21;;;;;;;8.10;2.37;;;;;;;4.51;64.60;100723.03;6142144;28;20223;-68
2021/01/13 03:00:41;;;;;;;9.53;1.70;;;;;;;4.58;63.81;100718.84;6140172;28;20601;-67
2021/01/13 03:04:04;;;;;;;12.17;2.60;;;;;;;4.89;63.18;100714.94;6134685;28;20235;-67
2021/01/13 03:07:26;;;;;;;8.63;1.93;;;;;;;4.53;64.61;100721.34;6164389;28;20542;-66
2021/01/13 03:10:47;;;;;;;8.03;3.37;;;;;;;4.36;65.37;100717.66;6141337;28;20227;-67
2021/01/13 03:14:16;;;;;;;9.10;2.33;;;;;;;4.57;64.98;100711.94;6144348;28;20231;-68
2021/01/13 03:17:52;;;;;;;8.70;2.40;;;;;;;4.06;66.53;100730.94;6138584;28;20226;-67
2021/01/13 03:21:19;;;;;;;6.97;2.30;;;;;;;4.06;67.00;100718.06;6136194;28;20258;-67
2021/01/13 03:24:48;;;;;;;12.53;3.97;;;;;;;3.94;67.21;100703.28;6143251;28;20686;-68
2021/01/13 03:28:10;;;;;;;5.73;1.93;;;;;;;3.99;66.73;100721.38;6142024;28;20223;-67
2021/01/13 03:31:32;;;;;;;7.50;1.90;;;;;;;3.94;67.35;100734.19;6133677;28;20342;-68
2021/01/13 03:35:03;;;;;;;6.67;1.97;;;;;;;3.85;67.26;100711.72;6142777;28;20517;-67
2021/01/13 03:38:28;;;;;;;6.80;2.70;;;;;;;3.82;67.96;100723.66;6143257;28;20563;-67
2021/01/13 03:42:04;;;;;;;7.37;2.13;;;;;;;4.11;66.68;100737.03;6137188;28;20231;-67
2021/01/13 03:45:34;;;;;;;7.20;2.47;;;;;;;3.78;68.10;100742.50;6133982;28;20765;-68
2021/01/13 03:49:02;;;;;;;9.17;3.57;;;;;;;3.45;69.56;100723.00;6143333;28;20337;-67
2021/01/13 03:52:26;;;;;;;12.43;2.63;;;;;;;3.56;69.04;100700.91;6143611;28;20313;-67
2021/01/13 03:55:50;;;;;;;7.93;2.87;;;;;;;3.35;70.05;100698.81;6143412;28;20223;-68
2021/01/13 03:59:15;;;;;;;6.20;2.23;;;;;;;3.54;69.72;100702.59;6125441;28;20234;-67
2021/01/13 04:02:43;;;;;;;3.37;1.43;;;;;;;3.66;69.38;100725.97;6135931;28;20644;-67
2021/01/13 04:06:06;;;;;;;4.10;1.77;;;;;;;4.04;67.34;100723.19;6143364;28;20387;-66
2021/01/13 04:09:27;;;;;;;6.47;2.50;;;;;;;4.05;67.63;100762.72;6142692;28;20239;-67
2021/01/13 04:13:02;;;;;;;10.37;3.87;;;;;;;4.09;67.27;100744.75;6142945;28;20227;-67
2021/01/13 04:16:23;;;;;;;6.50;2.53;;;;;;;3.84;68.99;100733.19;6136217;28;20227;-67
2021/01/13 04:19:46;;;;;;;5.73;2.30;;;;;;;3.70;68.97;100721.75;6130229;28;20286;-67
2021/01/13 04:23:07;;;;;;;5.30;2.33;;;;;;;3.62;69.00;100715.59;6138513;28;20239;-67
2021/01/13 04:26:29;;;;;;;5.63;2.43;;;;;;;3.54;69.55;100721.47;6141416;28;20239;-67
2021/01/13 04:29:51;;;;;;;5.23;2.03;;;;;;;3.54;69.63;100733.50;6139804;28;20231;-67
2021/01/13 04:33:12;;;;;;;3.63;1.37;;;;;;;3.61;68.95;100737.06;6139709;28;20274;-67
2021/01/13 04:36:36;;;;;;;6.40;2.33;;;;;;;3.44;69.07;100731.59;6143171;28;20239;-67
2021/01/13 04:40:01;;;;;;;2.00;1.80;;;;;;;3.48;69.39;100723.94;6138167;28;20318;-67
2021/01/13 04:43:27;;;;;;;2.80;1.10;;;;;;;3.53;68.81;100716.31;6143130;28;20224;-67
2021/01/13 04:46:55;;;;;;;2.70;1.33;;;;;;;3.44;69.75;100708.44;6139650;28;20549;-67
2021/01/13 04:50:18;;;;;;;2.17;1.10;;;;;;;3.22;69.71;100704.56;6141899;28;20258;-67
2021/01/13 04:53:40;;;;;;;4.83;2.03;;;;;;;3.43;69.31;100699.84;6142853;28;20231;-66
2021/01/13 04:57:16;;;;;;;5.03;2.47;;;;;;;3.42;69.72;100697.22;6140465;28;20235;-67
2021/01/13 05:01:06;;;;;;;8.43;3.20;;;;;;;3.07;71.43;100671.69;6139961;28;20605;-66
2021/01/13 05:04:56;;;;;;;7.07;2.23;;;;;;;3.34;70.99;100669.63;6137588;28;20322;-67
2021/01/13 05:08:26;;;;;;;3.47;1.93;;;;;;;3.47;70.81;100667.25;6140262;28;20258;-67
2021/01/13 05:11:48;;;;;;;8.27;2.53;;;;;;;3.40;71.18;100662.88;6143170;28;20258;-66
2021/01/13 05:15:14;;;;;;;4.30;2.20;;;;;;;3.69;69.62;100669.38;6141815;28;20239;-66
2021/01/13 05:18:52;;;;;;;3.33;1.93;;;;;;;3.92;68.52;100662.03;6143976;28;20230;-66
2021/01/13 05:22:16;;;;;;;12.60;3.57;;;;;;;3.50;70.65;100655.31;6141327;28;20354;-67
2021/01/13 05:25:46;;;;;;;6.87;2.33;;;;;;;3.52;70.65;100657.94;6130149;28;20235;-67
2021/01/13 05:29:39;;;;;;;5.97;2.30;;;;;;;3.77;70.04;100663.50;6150333;28;20218;-68
2021/01/13 05:33:00;;;;;;;6.60;3.33;;;;;;;3.83;69.78;100664.44;6136289;28;20362;-67
2021/01/13 05:36:24;;;;;;;4.13;2.47;;;;;;;3.85;69.56;100667.91;6137464;28;20227;-67
2021/01/13 05:39:49;;;;;;;4.97;2.17;;;;;;;3.84;69.68;100673.94;6140981;28;20255;-67
2021/01/13 05:43:11;;;;;;;5.63;3.17;;;;;;;3.64;70.28;100662.41;6139003;28;20247;-66
2021/01/13 05:46:44;;;;;;;7.03;2.40;;;;;;;3.12;72.98;100657.19;6137016;28;20230;-68
2021/01/13 05:50:05;;;;;;;12.10;2.57;;;;;;;3.62;70.83;100664.94;6132744;28;20628;-68
2021/01/13 05:53:26;;;;;;;13.00;3.60;;;;;;;3.53;71.36;100659.69;6152151;28;20227;-67
2021/01/13 05:56:55;;;;;;;5.87;3.23;;;;;;;2.82;73.39;100660.06;6139906;28;20243;-67
2021/01/13 06:00:17;;;;;;;6.63;2.60;;;;;;;3.26;72.15;100645.47;6136986;28;20239;-67
2021/01/13 06:03:46;;;;;;;8.27;2.63;;;;;;;3.32;72.67;100649.88;6137018;28;20235;-67
2021/01/13 06:07:17;;;;;;;10.93;3.17;;;;;;;3.60;70.59;100656.34;6144670;28;20325;-67
2021/01/13 06:10:38;;;;;;;8.30;3.27;;;;;;;3.51;71.11;100657.06;6145859;28;20857;-67
2021/01/13 06:14:03;;;;;;;8.90;4.17;;;;;;;3.79;70.73;100646.34;6145389;28;20636;-67
2021/01/13 06:17:25;;;;;;;4.17;3.40;;;;;;;3.71;70.24;100657.38;6140892;28;20227;-67
2021/01/13 06:20:46;;;;;;;5.97;3.57;;;;;;;3.72;70.73;100653.09;6143715;28;20597;-67
2021/01/13 06:24:11;;;;;;;6.20;2.63;;;;;;;3.70;70.93;100647.94;6142239;28;20320;-67
2021/01/13 06:27:47;;;;;;;9.13;3.43;;;;;;;3.63;71.13;100655.53;6140913;28;20231;-66
2021/01/13 06:31:09;;;;;;;3.57;2.67;;;;;;;3.59;70.73;100653.72;6125873;28;20243;-67
2021/01/13 06:34:36;;;;;;;5.47;2.23;;;;;;;3.63;70.73;100650.41;6148835;28;20258;-68
2021/01/13 06:38:00;;;;;;;7.07;3.23;;;;;;;3.48;72.12;100651.00;6129392;28;20231;-65
2021/01/13 06:41:20;;;;;;;9.67;3.73;;;;;;;3.39;71.40;100650.81;6137923;28;20235;-66
2021/01/13 06:44:45;;;;;;;10.87;3.63;;;;;;;3.39;72.50;100650.81;6136786;28;20280;-71
2021/01/13 06:48:08;;;;;;;4.90;2.37;;;;;;;3.53;71.44;100641.66;6143167;28;20231;-67
2021/01/13 06:51:28;;;;;;;14.40;4.90;;;;;;;3.86;70.51;100646.47;6139531;28;20254;-67
2021/01/13 06:54:50;;;;;;;10.83;3.53;;;;;;;3.55;71.67;100639.97;6150640;28;20318;-70
2021/01/13 06:58:13;;;;;;;5.30;2.57;;;;;;;3.51;71.31;100638.19;6140671;28;20317;-68
2021/01/13 07:01:53;;;;;;;4.90;2.60;;;;;;;3.61;71.87;100642.63;6142632;28;20223;-67
2021/01/13 07:05:33;;;;;;;6.00;3.70;;;;;;;3.91;70.65;100637.09;6143814;28;20239;-68
2021/01/13 07:08:53;;;;;;;4.47;2.20;;;;;;;3.50;71.88;100641.59;6142874;28;20254;-69
2021/01/13 07:12:16;;;;;;;4.83;2.00;;;;;;;3.77;70.77;100648.03;6133132;28;20545;-70
2021/01/13 07:15:38;;;;;;;6.27;3.00;;;;;;;3.63;71.24;100651.25;6137090;28;20228;-73
2021/01/13 07:19:01;;;;;;;4.00;2.03;;;;;;;3.71;71.34;100649.66;6141588;28;20223;-69
2021/01/13 07:22:24;;;;;;;6.07;2.00;;;;;;;3.75;70.83;100661.75;6145428;28;20234;-71
2021/01/13 07:25:46;;;;;;;8.00;2.73;;;;;;;3.65;70.82;100644.41;6143505;28;20230;-72
2021/01/13 07:29:06;;;;;;;6.03;2.73;;;;;;;3.82;70.68;100664.41;6141472;28;20231;-70
2021/01/13 07:32:30;;;;;;;6.63;2.33;;;;;;;3.82;71.26;100662.72;6138284;28;20277;-69
2021/01/13 07:35:51;;;;;;;10.67;3.50;;;;;;;3.71;71.12;100662.53;6135337;28;20240;-71
2021/01/13 07:39:16;;;;;;;14.67;4.83;;;;;;;3.79;71.40;100670.41;6143926;28;20258;-70
2021/01/13 07:42:37;;;;;;;11.20;3.93;;;;;;;3.69;71.57;100673.66;6137169;28;20892;-72
2021/01/13 07:46:04;;;;;;;7.83;2.20;;;;;;;4.14;70.20;100658.03;6135088;28;20235;-71
2021/01/13 07:49:24;;;;;;;4.27;2.07;;;;;;;4.25;69.08;100665.94;6134334;28;20262;-67
2021/01/13 07:52:47;;;;;;;4.10;2.23;;;;;;;4.49;68.01;100657.66;6137831;28;20325;-66
2021/01/13 07:56:12;;;;;;;3.70;2.97;;;;;;;4.08;69.47;100657.09;6136030;28;20811;-69
2021/01/13 07:59:40;;;;;;;5.10;3.47;;;;;;;3.74;70.79;100654.00;6134123;28;20231;-70
2021/01/13 08:03:38;;;;;;;10.80;3.73;;;;;;;3.87;70.59;100644.75;6139585;28;20247;-72
2021/01/13 08:06:59;;;;;;;7.30;2.23;;;;;;;3.81;70.63;100634.38;6141550;28;20219;-73
2021/01/13 08:10:20;;;;;;;5.93;2.40;;;;;;;3.50;71.84;100645.03;6143436;28;20330;-67
2021/01/13 08:14:04;;;;;;;9.13;2.87;;;;;;;3.83;70.96;100630.09;6142593;28;20223;-68
2021/01/13 08:17:38;;;;;;;14.00;2.90;;;;;;;3.70;71.10;100622.19;6132808;28;20239;-65
2021/01/13 08:21:11;;;;;;;6.60;2.37;;;;;;;3.62;71.18;100618.59;6135831;28;20227;-66
2021/01/13 08:24:33;;;;;;;8.00;2.60;;;;;;;3.29;71.88;100622.34;6138917;28;20652;-68
2021/01/13 08:27:57;;;;;;;6.67;2.53;;;;;;;3.73;70.25;100606.75;6143004;28;20227;-68
2021/01/13 08:31:22;;;;;;;7.93;2.80;;;;;;;3.59;71.49;100602.22;6134291;28;20601;-69
2021/01/13 08:34:44;;;;;;;6.63;3.67;;;;;;;3.76;71.08;100600.78;6139459;28;20511;-71
2021/01/13 08:38:06;;;;;;;2.23;2.03;;;;;;;4.22;69.39;100590.28;6140536;28;20235;-71
2021/01/13 08:41:27;;;;;;;3.30;2.40;;;;;;;4.27;68.57;100591.22;6142701;28;20239;-69
2021/01/13 08:44:49;;;;;;;3.27;1.90;;;;;;;4.13;68.85;100596.19;6136203;28;20611;-70
2021/01/13 08:48:13;;;;;;;4.57;2.67;;;;;;;3.72;70.26;100588.72;6138607;28;20268;-70
2021/01/13 08:51:34;;;;;;;3.63;2.40;;;;;;;3.79;70.09;100592.25;6139387;28;20254;-72
2021/01/13 08:55:15;;;;;;;4.63;2.07;;;;;;;3.46;71.16;100580.59;6137327;28;20235;-65
2021/01/13 08:58:36;;;;;;;6.83;2.33;;;;;;;4.74;68.17;100580.59;6140556;28;20244;-68
2021/01/13 09:02:03;;;;;;;2.57;1.97;;;;;;;4.74;66.84;100575.44;6139409;28;20235;-67
2021/01/13 09:05:29;;;;;;;6.70;1.90;;;;;;;4.56;66.87;100575.25;6140359;28;20267;-68
2021/01/13 09:08:52;;;;;;;6.47;1.97;;;;;;;4.17;68.75;100577.34;6130261;28;20547;-69
2021/01/13 09:12:44;;;;;;;6.47;1.87;;;;;;;3.99;69.10;100577.94;6142378;28;20232;-69
2021/01/13 09:16:33;;;;;;;7.40;2.10;;;;;;;3.86;70.59;100578.63;6136265;28;20232;-69
2021/01/13 09:19:54;;;;;;;8.37;2.43;;;;;;;3.81;70.82;100575.13;6129547;28;20239;-72
2021/01/13 09:23:21;;;;;;;3.73;1.67;;;;;;;3.93;70.61;100572.69;6130417;28;20231;-67
2021/01/13 09:26:51;;;;;;;7.93;3.07;;;;;;;3.81;70.76;100577.69;6038358;28;20254;-68
2021/01/13 09:30:37;;;;;;;9.37;2.70;;;;;;;4.67;67.99;100583.94;6065439;28;20543;-70
2021/01/13 09:33:59;;;;;;;9.73;2.93;;;;;;;4.60;68.35;100571.84;5905206;28;20225;-69
2021/01/13 09:37:30;;;;;;;4.23;1.90;;;;;;;4.99;67.22;100573.13;5562513;28;20231;-70
2021/01/13 09:41:42;;;;;;;6.67;2.67;;;;;;;5.16;66.94;100557.78;5632917;28;20896;-68
2021/01/13 09:45:37;;;;;;;7.33;2.20;;;;;;;5.42;65.17;100545.09;5605453;28;21030;-69
2021/01/13 09:49:02;;;;;;;7.43;2.43;;;;;;;5.21;65.79;100538.88;5642975;28;20352;-72
2021/01/13 09:52:23;;;;;;;13.63;3.13;;;;;;;5.26;66.15;100552.72;5632747;28;20251;-70
2021/01/13 09:55:45;;;;;;;9.33;2.67;;;;;;;4.93;66.50;100561.00;5575253;28;20933;-70
2021/01/13 10:03:34;;;;;;;10.10;3.40;;;;;;;5.17;66.91;100560.38;5644166;29;20235;-70
2021/01/13 10:11:11;;;;;;;13.37;2.50;;;;;;;5.64;65.62;100535.75;5593604;28;20649;-69
2021/01/13 10:15:10;;;;;;;8.93;2.60;;;;;;;5.76;65.22;100519.47;5609339;28;20244;-67
2021/01/13 10:18:51;;;;;;;12.20;2.40;;;;;;;5.98;64.66;100520.50;5906002;28;20338;-68
2021/01/13 10:22:12;;;;;;;8.97;2.53;;;;;;;5.73;64.91;100512.56;6115410;28;20232;-68
2021/01/13 10:25:33;;;;;;;7.97;2.83;;;;;;;5.19;66.95;100511.34;6121483;28;20250;-70
2021/01/13 10:28:57;;;;;;;8.43;2.00;;;;;;;5.30;66.25;100515.72;6116732;28;20326;-74
2021/01/13 10:32:19;;;;;;;9.83;3.70;;;;;;;4.92;68.13;100529.19;6109673;28;20348;-65
2021/01/13 10:35:40;;;;;;;6.50;2.53;;;;;;;5.01;67.62;100518.06;6115747;28;20327;-70
2021/01/13 10:39:03;;;;;;;7.90;2.73;;;;;;;4.84;68.32;100515.31;6108070;28;20228;-71
2021/01/13 10:42:26;;;;;;;7.43;2.87;;;;;;;4.81;67.99;100512.75;6113870;28;20913;-68
2021/01/13 10:45:57;;;;;;;7.97;2.33;;;;;;;4.83;69.10;100513.63;6103846;28;20235;-68
2021/01/13 10:49:25;;;;;;;8.60;3.57;;;;;;;4.77;68.86;100504.94;6113133;28;20239;-70
2021/01/13 10:52:46;;;;;;;5.43;2.80;;;;;;;4.46;69.57;100497.78;6110302;28;20243;-70
2021/01/13 10:56:09;;;;;;;9.93;2.90;;;;;;;4.69;68.97;100490.28;6111762;28;20243;-69
2021/01/13 10:59:30;;;;;;;8.87;2.70;;;;;;;4.83;68.58;100485.22;6112393;28;20306;-69
2021/01/13 11:02:51;;;;;;;11.50;2.50;;;;;;;4.97;68.68;100469.00;6114618;28;20256;-69
2021/01/13 11:06:23;;;;;;;8.17;3.37;;;;;;;5.13;68.34;100460.53;6115999;28;20235;-69
2021/01/13 11:09:45;;;;;;;11.73;3.10;;;;;;;5.13;68.38;100460.53;6111149;28;20227;-69
2021/01/13 11:13:08;;;;;;;10.27;3.13;;;;;;;5.07;68.18;100438.09;6106742;28;20244;-69
2021/01/13 11:16:29;;;;;;;7.87;2.20;;;;;;;4.99;68.76;100446.66;6130129;28;20309;-69
2021/01/13 11:19:56;;;;;;;11.57;2.30;;;;;;;4.91;68.93;100429.38;6110834;28;20236;-70
2021/01/13 11:23:18;;;;;;;6.97;2.43;;;;;;;5.15;68.20;100420.09;6110288;28;20227;-69
2021/01/13 11:26:39;;;;;;;21.57;3.53;;;;;;;5.06;68.81;100414.84;6110530;28;20613;-69
2021/01/13 11:30:00;;;;;;;14.50;3.37;;;;;;;5.11;68.11;100413.19;6121378;28;20709;-70
2021/01/13 11:33:23;;;;;;;17.57;4.93;;;;;;;4.97;68.33;100395.03;6108800;28;20235;-68
2021/01/13 11:36:55;;;;;;;7.23;3.13;;;;;;;5.32;67.09;100387.50;6106781;28;20264;-69
2021/01/13 11:40:54;;;;;;;12.77;3.70;;;;;;;5.27;67.71;100386.63;6107192;28;20231;-69
2021/01/13 11:44:28;;;;;;;12.87;2.87;;;;;;;5.27;67.86;100350.47;6095504;28;20266;-70
2021/01/13 11:47:53;;;;;;;13.60;2.33;;;;;;;5.24;67.43;100353.03;6106010;28;20236;-68
2021/01/13 11:51:17;;;;;;;9.20;3.10;;;;;;;5.50;66.72;100347.13;6097644;28;20235;-67
2021/01/13 11:54:41;;;;;;;9.17;3.00;;;;;;;5.29;66.72;100351.34;6135011;28;20231;-71
2021/01/13 11:58:03;;;;;;;10.93;3.77;;;;;;;5.35;66.99;100357.38;6099738;28;20236;-73
2021/01/13 12:01:24;;;;;;;12.47;2.63;;;;;;;5.36;66.41;100313.50;6122788;28;20235;-75
2021/01/13 12:04:46;;;;;;;6.23;2.50;;;;;;;5.47;66.70;100308.38;6119793;28;20232;-68
2021/01/13 12:08:09;;;;;;;7.97;2.50;;;;;;;5.26;66.91;100297.09;6114202;28;20243;-70
2021/01/13 12:11:38;;;;;;;6.13;2.40;;;;;;;5.37;66.72;100275.63;6115146;28;20243;-71
2021/01/13 12:15:05;;;;;;;5.97;2.77;;;;;;;5.35;66.92;100285.97;6116312;28;20322;-70
2021/01/13 12:18:27;;;;;;;11.80;3.20;;;;;;;5.42;66.83;100273.91;6110279;28;20232;-70
2021/01/13 12:21:48;;;;;;;10.43;3.60;;;;;;;5.46;66.67;100258.44;6110212;28;20319;-72
2021/01/13 12:25:24;;;;;;;10.20;2.90;;;;;;;5.36;66.99;100261.00;6111275;28;20514;-70
2021/01/13 12:28:46;;;;;;;9.60;3.50;;;;;;;5.43;66.54;100248.09;6123607;28;20227;-69
2021/01/13 12:32:07;;;;;;;14.03;3.37;;;;;;;5.67;65.45;100244.72;6110786;28;20271;-73
2021/01/13 12:35:29;;;;;;;11.07;4.80;;;;;;;5.43;66.07;100242.06;6102572;28;20394;-72
2021/01/13 12:38:50;;;;;;;11.37;2.93;;;;;;;5.33;66.53;100220.50;6112952;28;20232;-72
2021/01/13 12:42:17;;;;;;;10.47;3.40;;;;;;;5.59;65.92;100210.25;6112596;28;20380;-74
2021/01/13 12:45:37;;;;;;;12.77;3.03;;;;;;;5.64;65.15;100205.09;6110895;28;20342;-70
2021/01/13 12:49:00;;;;;;;9.47;3.47;;;;;;;5.53;65.30;100202.50;6116272;28;20761;-70
2021/01/13 12:52:20;;;;;;;14.57;4.67;;;;;;;5.46;66.46;100188.69;6110685;28;20235;-71
2021/01/13 12:55:41;;;;;;;12.73;3.93;;;;;;;5.62;66.10;100199.06;6110513;28;20227;-70
2021/01/13 12:59:02;;;;;;;9.00;2.53;;;;;;;5.47;66.62;100150.84;6112556;28;20244;-70
2021/01/13 13:02:22;;;;;;;9.17;2.90;;;;;;;5.19;67.10;100143.03;6110771;28;20271;-71
2021/01/13 13:05:44;;;;;;;13.43;4.43;;;;;;;5.91;65.03;100237.84;6123249;28;20228;-68
2021/01/13 13:09:08;;;;;;;6.37;2.63;;;;;;;5.90;65.19;100264.56;6134665;28;20256;-69
2021/01/13 13:12:29;;;;;;;2.27;0.80;;;;;;;5.61;64.43;100282.59;6108867;28;20247;-69
2021/01/13 13:15:49;;;;;;;0.70;0.70;;;;;;;5.42;64.15;100284.25;6105725;28;20227;-69
2021/01/13 13:19:10;;;;;;;1.20;0.90;;;;;;;5.29;63.96;100299.72;6104455;28;20377;-71
2021/01/13 13:22:31;;;;;;;0.80;0.80;;;;;;;5.19;64.01;100300.50;6091471;28;20279;-70
2021/01/13 13:25:52;;;;;;;1.00;0.63;;;;;;;4.61;65.79;100289.84;6125606;28;20231;-69
2021/01/13 13:29:12;;;;;;;1.23;0.63;;;;;;;4.87;64.60;100267.66;6108250;28;20330;-69
2021/01/13 13:32:33;;;;;;;2.50;0.80;;;;;;;4.84;65.43;100271.94;6109215;28;20239;-68
2021/01/13 13:35:54;;;;;;;2.60;0.90;;;;;;;4.52;66.23;100260.56;6113650;28;20231;-66
2021/01/13 13:39:15;;;;;;;2.80;1.30;;;;;;;4.58;66.03;100264.06;6125271;28;20236;-69
2021/01/13 13:42:35;;;;;;;4.30;0.90;;;;;;;4.85;65.39;100260.78;6116706;28;20633;-68
2021/01/13 13:45:56;;;;;;;3.93;1.20;;;;;;;4.74;65.43;100268.44;6113502;28;20240;-67
2021/01/13 13:49:17;;;;;;;3.73;1.07;;;;;;;4.57;66.13;100255.44;6111424;28;20232;-68
2021/01/13 13:52:38;;;;;;;2.27;0.70;;;;;;;4.60;65.51;100241.72;6114574;28;20247;-69
2021/01/13 13:55:59;;;;;;;2.30;1.23;;;;;;;4.41;66.42;100218.38;6113310;28;20314;-69
2021/01/13 13:59:20;;;;;;;1.63;0.90;;;;;;;4.35;66.21;100228.66;6113672;28;20834;-68
2021/01/13 14:02:41;;;;;;;1.00;0.87;;;;;;;4.59;65.12;100261.47;6112487;28;20315;-66
2021/01/13 14:06:02;;;;;;;3.07;1.27;;;;;;;4.57;65.04;100205.59;6114375;28;20240;-68
2021/01/13 14:09:22;;;;;;;4.90;1.20;;;;;;;4.42;64.79;100212.38;6109047;28;20252;-67
2021/01/13 14:12:44;;;;;;;8.73;1.60;;;;;;;4.56;64.11;100196.13;6115156;28;20236;-67
2021/01/13 14:16:05;;;;;;;3.70;2.00;;;;;;;4.66;63.95;100196.19;6099413;28;20617;-67
2021/01/13 14:19:25;;;;;;;6.80;1.87;;;;;;;4.72;64.00;100203.09;6115645;28;20904;-66
2021/01/13 14:22:46;;;;;;;7.60;2.33;;;;;;;4.84;63.33;100204.84;6116935;28;20232;-67
2021/01/13 14:26:06;;;;;;;12.10;3.13;;;;;;;4.48;63.83;100211.56;6120252;28;20330;-70
2021/01/13 14:29:28;;;;;;;11.60;3.43;;;;;;;4.70;64.02;100220.28;6117359;28;20232;-70
2021/01/13 14:32:51;;;;;;;7.23;2.67;;;;;;;4.49;64.03;100214.13;6113043;28;20235;-69
2021/01/13 14:36:17;;;;;;;6.67;2.47;;;;;;;4.74;63.92;100225.44;6120300;28;20232;-68
2021/01/13 14:39:38;;;;;;;6.30;2.50;;;;;;;4.86;63.75;100228.94;6118211;28;20892;-68
2021/01/13 14:43:02;;;;;;;8.20;3.17;;;;;;;4.84;63.30;100221.19;6131663;28;20242;-67
2021/01/13 14:46:24;;;;;;;8.83;3.30;;;;;;;5.06;62.53;100227.34;6115433;28;20645;-67
2021/01/13 14:49:45;;;;;;;8.40;3.70;;;;;;;5.12;62.43;100227.34;6115695;28;20224;-67
2021/01/13 14:53:05;;;;;;;14.13;4.00;;;;;;;5.15;62.44;100226.50;6115887;28;20244;-67
2021/01/13 14:56:30;;;;;;;15.63;4.03;;;;;;;5.22;62.67;100235.97;6113651;28;20224;-65
2021/01/13 14:59:50;;;;;;;19.37;4.83;;;;;;;5.24;62.25;100247.19;6116700;28;20243;-66
2021/01/13 15:03:11;;;;;;;14.00;4.93;;;;;;;5.35;61.79;100257.56;6118623;28;20236;-70
2021/01/13 15:06:32;;;;;;;11.27;3.63;;;;;;;5.45;61.48;100261.88;6116065;28;20227;-69
2021/01/13 15:09:52;;;;;;;22.77;4.50;;;;;;;5.40;61.62;100258.41;6114363;28;20240;-69
2021/01/13 15:13:13;;;;;;;9.03;3.37;;;;;;;5.44;60.51;100265.31;6115138;28;20239;-69
2021/01/13 15:16:34;;;;;;;14.10;4.77;;;;;;;5.32;61.10;100286.78;6115535;28;20244;-68
2021/01/13 15:19:55;;;;;;;10.50;4.77;;;;;;;5.24;60.29;100282.47;6114303;28;20232;-68
2021/01/13 15:23:15;;;;;;;15.60;3.27;;;;;;;5.37;60.05;100286.81;6119285;28;20613;-69
2021/01/13 15:26:36;;;;;;;10.03;3.57;;;;;;;5.24;60.34;100301.41;6119064;28;20227;-72
2021/01/13 15:29:56;;;;;;;8.27;2.80;;;;;;;5.16;60.10;100308.25;6115561;28;20235;-70
2021/01/13 15:33:17;;;;;;;7.90;2.40;;;;;;;5.16;59.55;100310.84;6110907;28;20664;-70
2021/01/13 15:36:38;;;;;;;6.43;2.40;;;;;;;5.30;59.86;100316.91;6119243;28;20227;-70
2021/01/13 15:40:00;;;;;;;11.87;2.73;;;;;;;5.36;59.51;100312.63;6121061;28;20645;-68
2021/01/13 15:43:21;;;;;;;10.03;2.00;;;;;;;5.31;59.49;100307.44;6117179;28;20232;-65
2021/01/13 15:46:42;;;;;;;6.33;2.47;;;;;;;5.40;59.33;100320.41;6117070;28;20314;-70
2021/01/13 15:50:03;;;;;;;6.53;2.93;;;;;;;5.61;59.00;100332.53;6115861;28;20334;-67
2021/01/13 15:53:25;;;;;;;4.60;1.90;;;;;;;5.54;59.41;100335.94;6116728;28;20232;-67
2021/01/13 15:56:50;;;;;;;11.40;2.40;;;;;;;5.45;59.10;100338.50;6116905;28;20228;-67
2021/01/13 16:00:12;;;;;;;5.77;1.80;;;;;;;5.44;59.23;100339.34;6118098;28;20227;-65
2021/01/13 16:03:32;;;;;;;5.47;2.30;;;;;;;5.29;59.66;100346.19;6114788;28;20326;-73
2021/01/13 16:06:54;;;;;;;4.57;1.87;;;;;;;5.35;59.57;100353.09;6117615;28;20232;-68
2021/01/13 16:10:17;;;;;;;4.67;1.90;;;;;;;5.24;60.15;100363.34;6118272;28;20239;-69
2021/01/13 16:13:40;;;;;;;7.20;3.47;;;;;;;5.45;58.63;100357.44;6116436;28;20240;-69
2021/01/13 16:17:02;;;;;;;6.63;1.77;;;;;;;5.23;59.32;100358.19;6116226;28;20243;-70